Time,TemperatureF,DewpointF,PressureIn,WindDirection,WindDirectionDegrees,WindSpeedMPH,WindSpeedGustMPH,Humidity,HourlyPrecipIn,Conditions,Clouds,dailyrainin,SoftwareType,DateUTC
2013-07-16 00:04:00,61.2,46.8,29.68,SSE,156,0.0,2.0,59,0.00,,,0.00,WeatherTracker,2013-07-16 07:04:00,
2013-07-16 00:09:00,60.8,46.8,29.68,SSE,156,0.0,1.0,60,0.00,,,0.00,WeatherTracker,2013-07-16 07:09:00,
2013-07-16 00:14:00,60.6,47.1,29.68,SSE,156,0.0,1.0,61,0.00,,,0.00,WeatherTracker,2013-07-16 07:14:00,
2013-07-16 00:19:00,59.7,47.5,29.68,SSE,158,0.0,1.0,64,0.00,,,0.00,WeatherTracker,2013-07-16 07:19:00,
2013-07-16 00:24:00,59.6,47.8,29.67,SSE,158,0.0,3.0,65,0.00,,,0.00,WeatherTracker,2013-07-16 07:24:00,
2013-07-16 00:30:00,59.5,47.7,29.67,SSE,158,0.0,0.0,65,0.00,,,0.00,WeatherTracker,2013-07-16 07:30:00,
2013-07-16 00:35:00,59.6,47.4,29.67,SSE,158,0.0,0.0,64,0.00,,,0.00,WeatherTracker,2013-07-16 07:35:00,
2013-07-16 00:40:00,59.9,47.3,29.67,SSE,158,0.0,0.0,63,0.00,,,0.00,WeatherTracker,2013-07-16 07:40:00,
2013-07-16 00:45:00,60.0,46.5,29.67,SSE,157,0.0,0.0,61,0.00,,,0.00,WeatherTracker,2013-07-16 07:45:00,
2013-07-16 00:50:00,60.2,46.3,29.67,SSE,157,0.0,0.0,60,0.00,,,0.00,WeatherTracker,2013-07-16 07:50:00,
2013-07-16 00:55:00,60.5,45.6,29.66,SSE,157,0.0,0.0,58,0.00,,,0.00,WeatherTracker,2013-07-16 07:55:00,
2013-07-16 01:00:00,61.3,45.5,29.67,SSE,158,0.0,0.0,56,0.00,,,0.00,WeatherTracker,2013-07-16 08:00:00,
2013-07-16 01:05:00,61.9,47.0,29.67,SSE,158,0.0,0.0,58,0.00,,,0.00,WeatherTracker,2013-07-16 08:05:00,
2013-07-16 01:10:00,61.6,47.6,29.67,SSE,158,0.0,0.0,60,0.00,,,0.00,WeatherTracker,2013-07-16 08:10:00,
2013-07-16 01:15:00,60.7,46.3,29.67,SSE,158,0.0,1.0,59,0.00,,,0.00,WeatherTracker,2013-07-16 08:15:00,
2013-07-16 01:20:00,60.3,46.4,29.67,SSE,158,0.0,1.0,60,0.00,,,0.00,WeatherTracker,2013-07-16 08:20:00,
2013-07-16 01:25:00,60.0,45.6,29.67,SSE,157,0.0,0.0,59,0.00,,,0.00,WeatherTracker,2013-07-16 08:25:00,
2013-07-16 01:30:00,60.0,45.6,29.67,SSE,158,0.0,0.0,59,0.00,,,0.00,WeatherTracker,2013-07-16 08:30:00,
2013-07-16 01:35:00,59.8,47.2,29.67,SSE,157,0.0,0.0,63,0.00,,,0.00,WeatherTracker,2013-07-16 08:35:00,
2013-07-16 01:40:00,58.8,47.5,29.67,SSE,157,0.0,1.0,66,0.00,,,0.00,WeatherTracker,2013-07-16 08:40:00,
2013-07-16 01:46:00,58.6,47.3,29.67,SSE,158,0.0,1.0,66,0.00,,,0.00,WeatherTracker,2013-07-16 08:46:00,
2013-07-16 01:51:00,58.7,46.6,29.67,SSE,158,0.0,0.0,64,0.00,,,0.00,WeatherTracker,2013-07-16 08:51:00,
2013-07-16 01:56:00,59.0,47.2,29.67,SSE,158,0.0,0.0,65,0.00,,,0.00,WeatherTracker,2013-07-16 08:56:00,
2013-07-16 02:01:00,59.0,46.8,29.67,SSE,158,0.0,0.0,64,0.00,,,0.00,WeatherTracker,2013-07-16 09:01:00,
2013-07-16 02:06:00,59.0,47.2,29.67,SSE,157,0.0,3.0,65,0.00,,,0.00,WeatherTracker,2013-07-16 09:06:00,
2013-07-16 02:11:00,58.7,47.0,29.67,SSE,157,0.0,3.0,65,0.00,,,0.00,WeatherTracker,2013-07-16 09:11:00,
2013-07-16 02:16:00,58.3,47.4,29.67,SSE,157,0.0,3.0,67,0.00,,,0.00,WeatherTracker,2013-07-16 09:16:00,
2013-07-16 02:21:00,57.8,47.3,29.67,SSE,157,2.0,3.0,68,0.00,,,0.00,WeatherTracker,2013-07-16 09:21:00,
2013-07-16 02:26:00,57.4,47.7,29.67,SSE,157,1.0,3.0,70,0.00,,,0.00,WeatherTracker,2013-07-16 09:26:00,
2013-07-16 02:31:00,57.1,47.8,29.67,SSE,152,0.0,3.0,71,0.00,,,0.00,WeatherTracker,2013-07-16 09:31:00,
2013-07-16 02:36:00,55.5,47.3,29.67,SSE,161,2.0,5.0,74,0.00,,,0.00,WeatherTracker,2013-07-16 09:36:00,
2013-07-16 02:41:00,55.1,47.0,29.67,SSE,161,0.0,5.0,74,0.00,,,0.00,WeatherTracker,2013-07-16 09:41:00,
2013-07-16 02:46:00,55.6,46.7,29.67,SSE,161,0.0,4.0,72,0.00,,,0.00,WeatherTracker,2013-07-16 09:46:00,
2013-07-16 02:51:00,55.5,46.6,29.67,SSE,161,0.0,2.0,72,0.00,,,0.00,WeatherTracker,2013-07-16 09:51:00,
2013-07-16 02:56:00,55.7,45.7,29.67,SSE,161,0.0,1.0,69,0.00,,,0.00,WeatherTracker,2013-07-16 09:56:00,
2013-07-16 03:01:00,56.0,47.1,29.67,SSE,161,3.0,0.0,72,0.00,,,0.00,WeatherTracker,2013-07-16 10:01:00,
2013-07-16 03:06:00,56.0,46.4,29.67,ESE,115,0.0,5.0,70,0.00,,,0.00,WeatherTracker,2013-07-16 10:06:00,
2013-07-16 03:12:00,56.0,46.7,29.67,ESE,115,0.0,5.0,71,0.00,,,0.00,WeatherTracker,2013-07-16 10:12:00,
2013-07-16 03:17:00,55.5,47.0,29.67,ESE,115,0.0,1.0,73,0.00,,,0.00,WeatherTracker,2013-07-16 10:17:00,
2013-07-16 03:22:00,55.4,46.5,29.67,ESE,115,0.0,0.0,72,0.00,,,0.00,WeatherTracker,2013-07-16 10:22:00,
2013-07-16 03:27:00,55.5,46.6,29.67,ESE,115,0.0,1.0,72,0.00,,,0.00,WeatherTracker,2013-07-16 10:27:00,
2013-07-16 03:32:00,55.3,46.8,29.67,ESE,115,1.0,1.0,73,0.00,,,0.00,WeatherTracker,2013-07-16 10:32:00,
2013-07-16 03:37:00,54.7,46.2,29.67,ESE,115,0.0,3.0,73,0.00,,,0.00,WeatherTracker,2013-07-16 10:37:00,
2013-07-16 03:42:00,54.6,46.1,29.67,ESE,115,0.0,3.0,73,0.00,,,0.00,WeatherTracker,2013-07-16 10:42:00,
2013-07-16 03:47:00,54.5,46.4,29.67,ESE,115,0.0,0.0,74,0.00,,,0.00,WeatherTracker,2013-07-16 10:47:00,
2013-07-16 03:52:00,54.4,46.3,29.67,ESE,115,0.0,0.0,74,0.00,,,0.00,WeatherTracker,2013-07-16 10:52:00,
2013-07-16 03:57:00,54.5,44.9,29.67,ESE,115,0.0,0.0,70,0.00,,,0.00,WeatherTracker,2013-07-16 10:57:00,
2013-07-16 04:02:00,54.8,45.2,29.67,ESE,115,1.0,1.0,70,0.00,,,0.00,WeatherTracker,2013-07-16 11:02:00,
2013-07-16 04:07:00,54.8,44.8,29.68,ESE,115,0.0,2.0,69,0.00,,,0.00,WeatherTracker,2013-07-16 11:07:00,
2013-07-16 04:12:00,54.5,44.9,29.67,ESE,115,0.0,2.0,70,0.00,,,0.00,WeatherTracker,2013-07-16 11:12:00,
2013-07-16 04:17:00,54.2,45.0,29.67,ESE,115,0.0,0.0,71,0.00,,,0.00,WeatherTracker,2013-07-16 11:17:00,
2013-07-16 04:22:00,53.8,45.0,29.67,ESE,115,0.0,0.0,72,0.00,,,0.00,WeatherTracker,2013-07-16 11:22:00,
2013-07-16 04:27:00,53.4,45.0,29.67,ESE,116,0.0,0.0,73,0.00,,,0.00,WeatherTracker,2013-07-16 11:27:00,
2013-07-16 04:32:00,53.2,44.4,29.67,ESE,115,0.0,1.0,72,0.00,,,0.00,WeatherTracker,2013-07-16 11:32:00,
2013-07-16 04:37:00,52.7,44.3,29.67,ESE,117,0.0,2.0,73,0.00,,,0.00,WeatherTracker,2013-07-16 11:37:00,
2013-07-16 04:42:00,52.2,44.2,29.68,SE,138,0.0,3.0,74,0.00,,,0.00,WeatherTracker,2013-07-16 11:42:00,
2013-07-16 04:47:00,52.1,43.7,29.67,SE,138,0.0,6.0,73,0.00,,,0.00,WeatherTracker,2013-07-16 11:47:00,
2013-07-16 04:52:00,52.4,43.6,29.68,SE,138,0.0,6.0,72,0.00,,,0.00,WeatherTracker,2013-07-16 11:52:00,
2013-07-16 04:57:00,52.3,43.5,29.68,SE,138,2.0,0.0,72,0.00,,,0.00,WeatherTracker,2013-07-16 11:57:00,
2013-07-16 05:02:00,51.1,43.1,29.68,SE,140,0.0,4.0,74,0.00,,,0.00,WeatherTracker,2013-07-16 12:02:00,
2013-07-16 05:07:00,50.7,43.4,29.68,SE,140,0.0,4.0,76,0.00,,,0.00,WeatherTracker,2013-07-16 12:07:00,
2013-07-16 05:12:00,50.3,43.7,29.68,SE,140,0.0,0.0,78,0.00,,,0.00,WeatherTracker,2013-07-16 12:12:00,
2013-07-16 05:18:00,50.3,44.0,29.68,SE,140,0.0,0.0,79,0.00,,,0.00,WeatherTracker,2013-07-16 12:18:00,
2013-07-16 05:23:00,50.3,43.7,29.68,SE,140,0.0,0.0,78,0.00,,,0.00,WeatherTracker,2013-07-16 12:23:00,
2013-07-16 05:28:00,50.1,43.5,29.68,SE,138,0.0,2.0,78,0.00,,,0.00,WeatherTracker,2013-07-16 12:28:00,
2013-07-16 05:33:00,49.4,42.8,29.69,SE,132,0.0,2.0,78,0.00,,,0.00,WeatherTracker,2013-07-16 12:33:00,
2013-07-16 05:38:00,48.8,42.6,29.69,SE,131,0.0,4.0,79,0.00,,,0.00,WeatherTracker,2013-07-16 12:38:00,
2013-07-16 05:43:00,48.6,42.7,29.69,SE,132,0.0,4.0,80,0.00,,,0.00,WeatherTracker,2013-07-16 12:43:00,
2013-07-16 05:48:00,48.5,42.6,29.70,SE,132,0.0,0.0,80,0.00,,,0.00,WeatherTracker,2013-07-16 12:48:00,
2013-07-16 05:53:00,48.4,42.5,29.70,SE,132,0.0,0.0,80,0.00,,,0.00,WeatherTracker,2013-07-16 12:53:00,
2013-07-16 05:58:00,48.5,42.9,29.70,SE,132,0.0,0.0,81,0.00,,,0.00,WeatherTracker,2013-07-16 12:58:00,
2013-07-16 06:03:00,48.2,42.3,29.70,SE,131,0.0,5.0,80,0.00,,,0.00,WeatherTracker,2013-07-16 13:03:00,
2013-07-16 06:08:00,48.1,42.2,29.70,SE,127,0.0,5.0,80,0.00,,,0.00,WeatherTracker,2013-07-16 13:08:00,
2013-07-16 06:13:00,48.2,42.3,29.70,SE,126,0.0,4.0,80,0.00,,,0.00,WeatherTracker,2013-07-16 13:13:00,
2013-07-16 06:18:00,48.4,42.8,29.70,SE,127,2.0,3.0,81,0.00,,,0.00,WeatherTracker,2013-07-16 13:18:00,
2013-07-16 06:23:00,48.9,43.3,29.70,SE,127,0.0,3.0,81,0.00,,,0.00,WeatherTracker,2013-07-16 13:23:00,
2013-07-16 06:28:00,49.8,43.2,29.70,SE,130,0.0,4.0,78,0.00,,,0.00,WeatherTracker,2013-07-16 13:28:00,
2013-07-16 06:33:00,50.5,43.9,29.70,SE,129,0.0,4.0,78,0.00,,,0.00,WeatherTracker,2013-07-16 13:33:00,
2013-07-16 06:38:00,50.9,43.9,29.70,SE,129,0.0,4.0,77,0.00,,,0.00,WeatherTracker,2013-07-16 13:38:00,
2013-07-16 06:43:00,51.2,44.6,29.70,ESE,115,0.0,5.0,78,0.00,,,0.00,WeatherTracker,2013-07-16 13:43:00,
2013-07-16 06:48:00,51.5,45.2,29.71,ESE,123,0.0,5.0,79,0.00,,,0.00,WeatherTracker,2013-07-16 13:48:00,
2013-07-16 06:53:00,51.8,45.2,29.71,ESE,123,0.0,4.0,78,0.00,,,0.00,WeatherTracker,2013-07-16 13:53:00,
2013-07-16 06:58:00,52.2,45.5,29.71,ESE,123,0.0,4.0,78,0.00,,,0.00,WeatherTracker,2013-07-16 13:58:00,
2013-07-16 07:03:00,53.0,46.0,29.71,ESE,123,0.0,0.0,77,0.00,,,0.00,WeatherTracker,2013-07-16 14:03:00,
2013-07-16 07:08:00,53.8,47.1,29.71,ESE,123,0.0,0.0,78,0.00,,,0.00,WeatherTracker,2013-07-16 14:08:00,
2013-07-16 07:14:00,55.3,48.6,29.71,ESE,122,2.0,0.0,78,0.00,,,0.00,WeatherTracker,2013-07-16 14:14:00,
2013-07-16 07:19:00,56.7,48.9,29.71,ESE,122,0.0,3.0,75,0.00,,,0.00,WeatherTracker,2013-07-16 14:19:00,
2013-07-16 07:24:00,57.6,49.0,29.71,SE,133,0.0,3.0,73,0.00,,,0.00,WeatherTracker,2013-07-16 14:24:00,
2013-07-16 07:29:00,58.6,49.2,29.71,SE,133,0.0,4.0,71,0.00,,,0.00,WeatherTracker,2013-07-16 14:29:00,
2013-07-16 07:34:00,59.0,48.5,29.71,SSE,164,1.0,4.0,68,0.00,,,0.00,WeatherTracker,2013-07-16 14:34:00,
2013-07-16 07:39:00,59.7,49.5,29.71,SSE,164,0.0,5.0,69,0.00,,,0.00,WeatherTracker,2013-07-16 14:39:00,
2013-07-16 07:44:00,60.5,49.5,29.71,SSE,164,0.0,5.0,67,0.00,,,0.00,WeatherTracker,2013-07-16 14:44:00,
2013-07-16 07:49:00,61.4,47.8,29.71,SSE,164,0.0,3.0,61,0.00,,,0.00,WeatherTracker,2013-07-16 14:49:00,
2013-07-16 07:54:00,62.3,47.3,29.71,SSE,164,0.0,1.0,58,0.00,,,0.00,WeatherTracker,2013-07-16 14:54:00,
2013-07-16 07:59:00,63.4,46.9,29.71,SSE,164,0.0,2.0,55,0.00,,,0.00,WeatherTracker,2013-07-16 14:59:00,
2013-07-16 08:04:00,64.4,48.4,29.71,SSE,164,0.0,3.0,56,0.00,,,0.00,WeatherTracker,2013-07-16 15:04:00,
2013-07-16 08:09:00,65.1,47.0,29.71,NW,314,4.0,4.0,52,0.00,,,0.00,WeatherTracker,2013-07-16 15:09:00,
2013-07-16 08:14:00,65.5,48.9,29.71,NW,313,4.0,6.0,55,0.00,,,0.00,WeatherTracker,2013-07-16 15:14:00,
2013-07-16 08:19:00,65.7,50.0,29.71,NW,312,3.0,6.0,57,0.00,,,0.00,WeatherTracker,2013-07-16 15:19:00,
2013-07-16 08:24:00,66.3,47.1,29.71,NW,312,3.0,5.0,50,0.00,,,0.00,WeatherTracker,2013-07-16 15:24:00,
2013-07-16 08:29:00,67.2,46.3,29.71,NW,312,1.0,4.0,47,0.00,,,0.00,WeatherTracker,2013-07-16 15:29:00,
2013-07-16 08:34:00,68.4,45.0,29.71,NW,315,2.0,4.0,43,0.00,,,0.00,WeatherTracker,2013-07-16 15:34:00,
2013-07-16 08:39:00,69.4,44.7,29.71,NW,315,1.0,3.0,41,0.00,,,0.00,WeatherTracker,2013-07-16 15:39:00,
2013-07-16 08:44:00,70.4,48.0,29.71,NW,315,0.0,3.0,45,0.00,,,0.00,WeatherTracker,2013-07-16 15:44:00,
2013-07-16 08:49:00,71.6,47.3,29.71,NW,315,3.0,3.0,42,0.00,,,0.00,WeatherTracker,2013-07-16 15:49:00,
2013-07-16 08:54:00,72.3,45.9,29.71,NW,316,1.0,4.0,39,0.00,,,0.00,WeatherTracker,2013-07-16 15:54:00,
2013-07-16 08:59:00,72.7,45.6,29.71,NW,316,0.0,4.0,38,0.00,,,0.00,WeatherTracker,2013-07-16 15:59:00,
2013-07-16 09:04:00,73.5,46.3,29.71,NW,316,2.0,4.0,38,0.00,,,0.00,WeatherTracker,2013-07-16 16:04:00,
2013-07-16 09:09:00,74.2,46.9,29.71,NW,316,1.0,3.0,38,0.00,,,0.00,WeatherTracker,2013-07-16 16:09:00,
2013-07-16 09:15:00,74.9,47.6,29.71,NNW,328,0.0,3.0,38,0.00,,,0.00,WeatherTracker,2013-07-16 16:15:00,
2013-07-16 09:20:00,75.6,46.7,29.71,NNW,329,1.0,3.0,36,0.00,,,0.00,WeatherTracker,2013-07-16 16:20:00,
2013-07-16 09:25:00,76.2,46.5,29.70,NNW,330,1.0,4.0,35,0.00,,,0.00,WeatherTracker,2013-07-16 16:25:00,
2013-07-16 09:30:00,76.7,46.2,29.70,North,3,2.0,4.0,34,0.00,,,0.00,WeatherTracker,2013-07-16 16:30:00,
2013-07-16 09:35:00,76.9,46.4,29.70,NE,36,0.0,5.0,34,0.00,,,0.00,WeatherTracker,2013-07-16 16:35:00,
2013-07-16 09:40:00,77.5,43.6,29.70,NNE,24,2.0,5.0,30,0.00,,,0.00,WeatherTracker,2013-07-16 16:40:00,
2013-07-16 09:45:00,77.9,46.5,29.70,ENE,75,1.0,5.0,33,0.00,,,0.00,WeatherTracker,2013-07-16 16:45:00,
2013-07-16 09:50:00,78.7,45.5,29.70,NNE,27,2.0,5.0,31,0.00,,,0.00,WeatherTracker,2013-07-16 16:50:00,
2013-07-16 09:55:00,79.3,45.2,29.69,North,356,1.0,4.0,30,0.00,,,0.00,WeatherTracker,2013-07-16 16:55:00,
2013-07-16 10:00:00,79.4,45.2,29.70,North,360,0.0,5.0,30,0.00,,,0.00,WeatherTracker,2013-07-16 17:00:00,
2013-07-16 10:05:00,79.5,42.6,29.69,NW,318,4.0,6.0,27,0.00,,,0.00,WeatherTracker,2013-07-16 17:05:00,
2013-07-16 10:10:00,79.2,42.3,29.69,NW,325,2.0,6.0,27,0.00,,,0.00,WeatherTracker,2013-07-16 17:10:00,
2013-07-16 10:15:00,79.4,42.5,29.70,NW,326,0.0,6.0,27,0.00,,,0.00,WeatherTracker,2013-07-16 17:15:00,
2013-07-16 10:20:00,79.8,41.8,29.70,NW,321,5.0,5.0,26,0.00,,,0.00,WeatherTracker,2013-07-16 17:20:00,
2013-07-16 10:25:00,80.0,43.0,29.70,NW,325,0.0,6.0,27,0.00,,,0.00,WeatherTracker,2013-07-16 17:25:00,
2013-07-16 10:30:00,80.6,44.5,29.70,North,10,0.0,6.0,28,0.00,,,0.00,WeatherTracker,2013-07-16 17:30:00,
2013-07-16 10:35:00,81.1,42.9,29.69,NNW,334,5.0,6.0,26,0.00,,,0.00,WeatherTracker,2013-07-16 17:35:00,
2013-07-16 10:40:00,80.9,42.8,29.69,NNW,342,2.0,6.0,26,0.00,,,0.00,WeatherTracker,2013-07-16 17:40:00,
2013-07-16 10:45:00,81.3,45.1,29.69,NNW,346,1.0,5.0,28,0.00,,,0.00,WeatherTracker,2013-07-16 17:45:00,
2013-07-16 10:50:00,82.0,45.7,29.70,ENE,77,2.0,4.0,28,0.00,,,0.00,WeatherTracker,2013-07-16 17:50:00,
2013-07-16 10:55:00,82.1,42.8,29.69,East,98,3.0,5.0,25,0.00,,,0.00,WeatherTracker,2013-07-16 17:55:00,
2013-07-16 11:00:00,81.6,39.0,29.69,SSE,164,5.0,13.0,22,0.00,,,0.00,WeatherTracker,2013-07-16 18:00:00,
2013-07-16 11:05:00,81.6,42.3,29.69,SSE,149,10.0,13.0,25,0.00,,,0.00,WeatherTracker,2013-07-16 18:05:00,
2013-07-16 11:10:00,82.2,38.4,29.69,ESE,118,2.0,15.0,21,0.00,,,0.00,WeatherTracker,2013-07-16 18:10:00,
2013-07-16 11:15:00,82.7,40.0,29.68,SSW,208,9.0,15.0,22,0.00,,,0.00,WeatherTracker,2013-07-16 18:15:00,
2013-07-16 11:20:00,81.8,39.2,29.69,South,181,13.0,18.0,22,0.00,,,0.00,WeatherTracker,2013-07-16 18:20:00,
2013-07-16 11:25:00,81.8,42.5,29.69,WSW,244,12.0,19.0,25,0.00,,,0.00,WeatherTracker,2013-07-16 18:25:00,
2013-07-16 11:30:00,81.7,41.4,29.69,SW,228,6.0,19.0,24,0.00,,,0.00,WeatherTracker,2013-07-16 18:30:00,
2013-07-16 11:35:00,81.8,42.5,29.69,WNW,288,3.0,18.0,25,0.00,,,0.00,WeatherTracker,2013-07-16 18:35:00,
2013-07-16 11:40:00,82.4,39.7,29.69,SW,221,7.0,11.0,22,0.00,,,0.00,WeatherTracker,2013-07-16 18:40:00,
2013-07-16 11:45:00,82.6,37.4,29.69,SW,218,5.0,13.0,20,0.00,,,0.00,WeatherTracker,2013-07-16 18:45:00,
2013-07-16 11:50:00,82.6,37.4,29.69,SW,231,1.0,15.0,20,0.00,,,0.00,WeatherTracker,2013-07-16 18:50:00,
2013-07-16 11:56:00,82.8,36.3,29.69,SW,230,7.0,15.0,19,0.00,,,0.00,WeatherTracker,2013-07-16 18:56:00,
2013-07-16 12:00:00,82.5,38.6,29.69,West,279,7.0,12.0,21,0.00,,,0.00,WeatherTracker,2013-07-16 19:00:00,
2013-07-16 12:06:00,82.9,37.7,29.69,South,177,14.0,14.0,20,0.00,,,0.00,WeatherTracker,2013-07-16 19:06:00,
2013-07-16 12:11:00,82.9,35.0,29.69,SSW,212,12.0,18.0,18,0.00,,,0.00,WeatherTracker,2013-07-16 19:11:00,
2013-07-16 12:16:00,83.0,35.1,29.70,SSW,210,15.0,18.0,18,0.00,,,0.00,WeatherTracker,2013-07-16 19:16:00,
2013-07-16 12:21:00,83.1,35.2,29.69,SW,220,7.0,19.0,18,0.00,,,0.00,WeatherTracker,2013-07-16 19:21:00,
2013-07-16 12:26:00,83.2,35.3,29.70,SSW,195,13.0,22.0,18,0.00,,,0.00,WeatherTracker,2013-07-16 19:26:00,
2013-07-16 12:31:00,83.0,30.6,29.70,SW,221,6.0,22.0,15,0.00,,,0.00,WeatherTracker,2013-07-16 19:31:00,
2013-07-16 12:36:00,83.6,39.5,29.70,SSE,149,8.0,18.0,21,0.00,,,0.00,WeatherTracker,2013-07-16 19:36:00,
2013-07-16 12:41:00,83.7,37.0,29.69,SSW,196,8.0,14.0,19,0.00,,,0.00,WeatherTracker,2013-07-16 19:41:00,
2013-07-16 12:47:00,83.7,32.7,29.69,SW,227,5.0,19.0,16,0.00,,,0.00,WeatherTracker,2013-07-16 19:47:00,
2013-07-16 12:52:00,83.5,39.4,29.69,SSW,200,3.0,20.0,21,0.00,,,0.00,WeatherTracker,2013-07-16 19:52:00,
2013-07-16 12:57:00,83.9,34.4,29.69,WSW,244,9.0,20.0,17,0.00,,,0.00,WeatherTracker,2013-07-16 19:57:00,
2013-07-16 13:02:00,84.1,36.0,29.69,SSW,194,15.0,19.0,18,0.00,,,0.00,WeatherTracker,2013-07-16 20:02:00,
2013-07-16 13:07:00,83.6,32.6,29.69,SSW,208,9.0,25.0,16,0.00,,,0.00,WeatherTracker,2013-07-16 20:07:00,
2013-07-16 13:12:00,84.0,35.9,29.69,SSW,202,16.0,25.0,18,0.00,,,0.00,WeatherTracker,2013-07-16 20:12:00,
2013-07-16 13:17:00,84.8,33.6,29.70,SW,222,6.0,20.0,16,0.00,,,0.00,WeatherTracker,2013-07-16 20:17:00,
2013-07-16 13:22:00,84.7,39.2,29.69,SSW,212,9.0,18.0,20,0.00,,,0.00,WeatherTracker,2013-07-16 20:22:00,
2013-07-16 13:27:00,84.8,35.1,29.69,SW,226,2.0,20.0,17,0.00,,,0.00,WeatherTracker,2013-07-16 20:27:00,
2013-07-16 13:32:00,84.8,37.9,29.70,South,187,13.0,20.0,19,0.00,,,0.00,WeatherTracker,2013-07-16 20:32:00,
2013-07-16 13:37:00,84.4,36.2,29.69,South,189,7.0,21.0,18,0.00,,,0.00,WeatherTracker,2013-07-16 20:37:00,
2013-07-16 13:42:00,84.5,36.3,29.69,SSW,197,9.0,21.0,18,0.00,,,0.00,WeatherTracker,2013-07-16 20:42:00,
2013-07-16 13:47:00,84.4,38.9,29.69,South,179,6.0,20.0,20,0.00,,,0.00,WeatherTracker,2013-07-16 20:47:00,
2013-07-16 13:52:00,84.6,36.4,29.69,SW,221,19.0,23.0,18,0.00,,,0.00,WeatherTracker,2013-07-16 20:52:00,
2013-07-16 13:57:00,84.7,39.2,29.69,SW,220,16.0,23.0,20,0.00,,,0.00,WeatherTracker,2013-07-16 20:57:00,
2013-07-16 13:58:00,84.7,39.2,29.69,SSE,165,8.0,23.0,20,0.00,,,0.00,WeatherTracker,2013-07-16 20:58:00,
2013-07-16 14:03:00,84.5,40.3,29.69,West,260,5.0,19.0,21,0.00,,,0.00,WeatherTracker,2013-07-16 21:03:00,
2013-07-16 14:08:00,84.4,40.2,29.69,South,175,17.0,19.0,21,0.00,,,0.00,WeatherTracker,2013-07-16 21:08:00,
2013-07-16 14:13:00,85.1,42.0,29.69,SSW,204,8.0,20.0,22,0.00,,,0.00,WeatherTracker,2013-07-16 21:13:00,
2013-07-16 14:18:00,85.4,39.7,29.69,SSE,161,6.0,20.0,20,0.00,,,0.00,WeatherTracker,2013-07-16 21:18:00,
2013-07-16 14:23:00,85.0,46.2,29.69,SSW,204,10.0,18.0,26,0.00,,,0.00,WeatherTracker,2013-07-16 21:23:00,
2013-07-16 14:28:00,84.2,46.6,29.68,West,280,6.0,17.0,27,0.00,,,0.00,WeatherTracker,2013-07-16 21:28:00,
2013-07-16 14:33:00,84.0,44.4,29.68,WSW,237,4.0,18.0,25,0.00,,,0.00,WeatherTracker,2013-07-16 21:33:00,
2013-07-16 14:38:00,83.9,45.3,29.69,SW,227,7.0,18.0,26,0.00,,,0.00,WeatherTracker,2013-07-16 21:38:00,
2013-07-16 14:43:00,83.5,43.9,29.69,SSW,193,11.0,16.0,25,0.00,,,0.00,WeatherTracker,2013-07-16 21:43:00,
2013-07-16 14:48:00,84.0,44.4,29.69,SSW,199,5.0,17.0,25,0.00,,,0.00,WeatherTracker,2013-07-16 21:48:00,
2013-07-16 14:53:00,84.5,41.5,29.69,SW,231,9.0,17.0,22,0.00,,,0.00,WeatherTracker,2013-07-16 21:53:00,
2013-07-16 14:58:00,84.3,42.4,29.69,WSW,237,4.0,16.0,23,0.00,,,0.00,WeatherTracker,2013-07-16 21:58:00,
2013-07-16 15:03:00,84.7,40.4,29.69,SE,142,5.0,16.0,21,0.00,,,0.00,WeatherTracker,2013-07-16 22:03:00,
2013-07-16 15:08:00,85.3,42.1,29.68,South,187,10.0,18.0,22,0.00,,,0.00,WeatherTracker,2013-07-16 22:08:00,
2013-07-16 15:13:00,85.1,44.2,29.69,SW,227,5.0,18.0,24,0.00,,,0.00,WeatherTracker,2013-07-16 22:13:00,
2013-07-16 15:18:00,84.8,42.9,29.68,SSW,192,4.0,18.0,23,0.00,,,0.00,WeatherTracker,2013-07-16 22:18:00,
2013-07-16 15:23:00,84.9,42.9,29.68,West,260,8.0,14.0,23,0.00,,,0.00,WeatherTracker,2013-07-16 22:23:00,
2013-07-16 15:28:00,85.2,43.2,29.69,South,181,12.0,13.0,23,0.00,,,0.00,WeatherTracker,2013-07-16 22:28:00,
2013-07-16 15:33:00,84.4,43.6,29.68,SW,215,12.0,15.0,24,0.00,,,0.00,WeatherTracker,2013-07-16 22:33:00,
2013-07-16 15:39:00,83.8,44.2,29.68,SW,221,6.0,18.0,25,0.00,,,0.00,WeatherTracker,2013-07-16 22:39:00,
2013-07-16 15:44:00,84.5,43.7,29.68,West,280,6.0,18.0,24,0.00,,,0.00,WeatherTracker,2013-07-16 22:44:00,
2013-07-16 15:49:00,83.9,42.1,29.68,WSW,257,4.0,12.0,23,0.00,,,0.00,WeatherTracker,2013-07-16 22:49:00,
2013-07-16 15:54:00,83.9,44.3,29.68,WSW,252,2.0,19.0,25,0.00,,,0.00,WeatherTracker,2013-07-16 22:54:00,
2013-07-16 15:59:00,83.4,41.7,29.68,WSW,245,4.0,19.0,23,0.00,,,0.00,WeatherTracker,2013-07-16 22:59:00,
2013-07-16 16:04:00,83.5,43.9,29.69,SSW,213,10.0,22.0,25,0.00,,,0.00,WeatherTracker,2013-07-16 23:04:00,
2013-07-16 16:09:00,83.6,44.0,29.69,SW,214,11.0,22.0,25,0.00,,,0.00,WeatherTracker,2013-07-16 23:09:00,
2013-07-16 16:14:00,83.3,42.7,29.69,West,277,5.0,18.0,24,0.00,,,0.00,WeatherTracker,2013-07-16 23:14:00,
2013-07-16 16:19:00,83.4,43.9,29.69,West,264,4.0,17.0,25,0.00,,,0.00,WeatherTracker,2013-07-16 23:19:00,
2013-07-16 16:24:00,83.4,42.8,29.69,NNW,327,10.0,15.0,24,0.00,,,0.00,WeatherTracker,2013-07-16 23:24:00,
2013-07-16 16:29:00,83.2,42.6,29.69,SW,230,4.0,16.0,24,0.00,,,0.00,WeatherTracker,2013-07-16 23:29:00,
2013-07-16 16:34:00,83.3,41.6,29.69,SSW,210,7.0,20.0,23,0.00,,,0.00,WeatherTracker,2013-07-16 23:34:00,
2013-07-16 16:39:00,83.2,44.7,29.69,WNW,300,12.0,20.0,26,0.00,,,0.00,WeatherTracker,2013-07-16 23:39:00,
2013-07-16 16:44:00,82.9,43.4,29.69,West,280,4.0,17.0,25,0.00,,,0.00,WeatherTracker,2013-07-16 23:44:00,
2013-07-16 16:49:00,82.7,43.3,29.69,NW,306,9.0,18.0,25,0.00,,,0.00,WeatherTracker,2013-07-16 23:49:00,
2013-07-16 16:54:00,82.3,41.9,29.69,NW,315,4.0,18.0,24,0.00,,,0.00,WeatherTracker,2013-07-16 23:54:00,
2013-07-16 16:59:00,82.4,42.0,29.69,WSW,244,5.0,22.0,24,0.00,,,0.00,WeatherTracker,2013-07-16 23:59:00,
2013-07-16 17:04:00,82.8,42.3,29.69,WNW,286,2.0,22.0,24,0.00,,,0.00,WeatherTracker,2013-07-17 00:04:00,
2013-07-16 17:09:00,82.9,42.4,29.68,West,279,6.0,17.0,24,0.00,,,0.00,WeatherTracker,2013-07-17 00:09:00,
2013-07-16 17:14:00,82.7,43.3,29.69,SSW,198,15.0,17.0,25,0.00,,,0.00,WeatherTracker,2013-07-17 00:14:00,
2013-07-16 17:19:00,82.5,42.0,29.69,NW,318,7.0,18.0,24,0.00,,,0.00,WeatherTracker,2013-07-17 00:19:00,
2013-07-16 17:24:00,82.1,41.7,29.69,NW,304,9.0,18.0,24,0.00,,,0.00,WeatherTracker,2013-07-17 00:24:00,
2013-07-16 17:29:00,81.7,43.5,29.69,NW,308,12.0,21.0,26,0.00,,,0.00,WeatherTracker,2013-07-17 00:29:00,
2013-07-16 17:34:00,81.6,43.4,29.69,West,262,7.0,21.0,26,0.00,,,0.00,WeatherTracker,2013-07-17 00:34:00,
2013-07-16 17:39:00,81.7,41.4,29.69,WSW,239,5.0,17.0,24,0.00,,,0.00,WeatherTracker,2013-07-17 00:39:00,
2013-07-16 17:44:00,81.8,42.5,29.69,West,264,4.0,21.0,25,0.00,,,0.00,WeatherTracker,2013-07-17 00:44:00,
2013-07-16 17:49:00,81.3,44.1,29.69,WNW,303,6.0,21.0,27,0.00,,,0.00,WeatherTracker,2013-07-17 00:49:00,
2013-07-16 17:54:00,81.3,42.1,29.69,SW,231,12.0,20.0,25,0.00,,,0.00,WeatherTracker,2013-07-17 00:54:00,
2013-07-16 17:59:00,81.1,42.9,29.69,West,281,14.0,20.0,26,0.00,,,0.00,WeatherTracker,2013-07-17 00:59:00,
2013-07-16 18:04:00,80.9,42.8,29.70,SW,222,7.0,16.0,26,0.00,,,0.00,WeatherTracker,2013-07-17 01:04:00,
2013-07-16 18:09:00,80.9,43.8,29.70,NW,304,7.0,21.0,27,0.00,,,0.00,WeatherTracker,2013-07-17 01:09:00,
2013-07-16 18:14:00,80.9,43.8,29.69,West,263,13.0,21.0,27,0.00,,,0.00,WeatherTracker,2013-07-17 01:14:00,
2013-07-16 18:20:00,80.2,43.2,29.70,NW,312,10.0,25.0,27,0.00,,,0.00,WeatherTracker,2013-07-17 01:20:00,
2013-07-16 18:25:00,80.3,43.2,29.70,WNW,300,6.0,19.0,27,0.00,,,0.00,WeatherTracker,2013-07-17 01:25:00,
2013-07-16 18:30:00,80.5,43.4,29.70,West,276,7.0,17.0,27,0.00,,,0.00,WeatherTracker,2013-07-17 01:30:00,
2013-07-16 18:35:00,80.1,44.0,29.70,West,269,8.0,18.0,28,0.00,,,0.00,WeatherTracker,2013-07-17 01:35:00,
2013-07-16 18:40:00,79.9,43.9,29.70,SSW,192,3.0,18.0,28,0.00,,,0.00,WeatherTracker,2013-07-17 01:40:00,
2013-07-16 18:45:00,79.8,41.8,29.71,SSW,200,8.0,17.0,26,0.00,,,0.00,WeatherTracker,2013-07-17 01:45:00,
2013-07-16 18:50:00,79.8,42.8,29.71,WNW,288,4.0,17.0,27,0.00,,,0.00,WeatherTracker,2013-07-17 01:50:00,
2013-07-16 18:55:00,79.1,43.2,29.71,West,281,10.0,17.0,28,0.00,,,0.00,WeatherTracker,2013-07-17 01:55:00,
2013-07-16 19:00:00,78.7,43.7,29.71,WNW,300,6.0,18.0,29,0.00,,,0.00,WeatherTracker,2013-07-17 02:00:00,
2013-07-16 19:05:00,78.6,41.8,29.71,NW,313,5.0,18.0,27,0.00,,,0.00,WeatherTracker,2013-07-17 02:05:00,
2013-07-16 19:10:00,78.7,42.8,29.72,NW,314,0.0,16.0,28,0.00,,,0.00,WeatherTracker,2013-07-17 02:10:00,
2013-07-16 19:15:00,79.1,42.2,29.72,NW,320,1.0,11.0,27,0.00,,,0.00,WeatherTracker,2013-07-17 02:15:00,
2013-07-16 19:20:00,79.1,41.3,29.72,NW,306,6.0,13.0,26,0.00,,,0.00,WeatherTracker,2013-07-17 02:20:00,
2013-07-16 19:26:00,78.5,41.7,29.73,WSW,258,7.0,13.0,27,0.00,,,0.00,WeatherTracker,2013-07-17 02:26:00,
2013-07-16 19:31:00,77.1,41.5,29.73,West,265,11.0,18.0,28,0.00,,,0.00,WeatherTracker,2013-07-17 02:31:00,
2013-07-16 19:36:00,76.4,39.9,29.73,WNW,301,2.0,18.0,27,0.00,,,0.00,WeatherTracker,2013-07-17 02:36:00,
2013-07-16 19:41:00,76.0,41.4,29.73,West,275,11.0,14.0,29,0.00,,,0.00,WeatherTracker,2013-07-17 02:41:00,
2013-07-16 19:46:00,75.5,41.9,29.73,West,267,12.0,23.0,30,0.00,,,0.00,WeatherTracker,2013-07-17 02:46:00,
2013-07-16 19:51:00,75.4,43.5,29.74,WSW,254,2.0,23.0,32,0.00,,,0.00,WeatherTracker,2013-07-17 02:51:00,
2013-07-16 19:56:00,75.6,38.3,29.74,WNW,295,7.0,16.0,26,0.00,,,0.00,WeatherTracker,2013-07-17 02:56:00,
2013-07-16 20:01:00,75.6,41.1,29.74,NW,304,7.0,13.0,29,0.00,,,0.00,WeatherTracker,2013-07-17 03:01:00,
2013-07-16 20:06:00,75.7,40.3,29.74,West,269,2.0,13.0,28,0.00,,,0.00,WeatherTracker,2013-07-17 03:06:00,
2013-07-16 20:11:00,75.5,40.1,29.74,NW,304,2.0,11.0,28,0.00,,,0.00,WeatherTracker,2013-07-17 03:11:00,
2013-07-16 20:16:00,74.5,41.9,29.75,ENE,66,5.0,10.0,31,0.00,,,0.00,WeatherTracker,2013-07-17 03:16:00,
2013-07-16 20:21:00,73.4,40.1,29.75,NNE,27,4.0,8.0,30,0.00,,,0.00,WeatherTracker,2013-07-17 03:21:00,
2013-07-16 20:26:00,73.0,39.7,29.75,NE,46,1.0,8.0,30,0.00,,,0.00,WeatherTracker,2013-07-17 03:26:00,
2013-07-16 20:31:00,72.5,38.4,29.76,NE,46,0.0,5.0,29,0.00,,,0.00,WeatherTracker,2013-07-17 03:31:00,
2013-07-16 20:36:00,71.7,41.0,29.76,NE,46,0.0,6.0,33,0.00,,,0.00,WeatherTracker,2013-07-17 03:36:00,
2013-07-16 20:41:00,70.1,40.4,29.76,NNW,347,2.0,6.0,34,0.00,,,0.00,WeatherTracker,2013-07-17 03:41:00,
2013-07-16 20:46:00,68.7,40.7,29.76,NNE,24,3.0,4.0,36,0.00,,,0.00,WeatherTracker,2013-07-17 03:46:00,
2013-07-16 20:51:00,68.1,40.1,29.76,NNE,19,3.0,4.0,36,0.00,,,0.00,WeatherTracker,2013-07-17 03:51:00,
2013-07-16 20:56:00,68.5,39.0,29.76,North,5,0.0,8.0,34,0.00,,,0.00,WeatherTracker,2013-07-17 03:56:00,
2013-07-16 21:01:00,68.9,37.8,29.77,NNE,25,0.0,8.0,32,0.00,,,0.00,WeatherTracker,2013-07-17 04:01:00,
2013-07-16 21:06:00,69.3,37.4,29.77,North,9,0.0,7.0,31,0.00,,,0.00,WeatherTracker,2013-07-17 04:06:00,
2013-07-16 21:12:00,68.8,37.7,29.78,NNW,337,4.0,7.0,32,0.00,,,0.00,WeatherTracker,2013-07-17 04:12:00,
2013-07-16 21:17:00,68.6,39.1,29.78,NNW,342,0.0,7.0,34,0.00,,,0.00,WeatherTracker,2013-07-17 04:17:00,
2013-07-16 21:22:00,67.9,40.0,29.78,NNW,342,0.0,6.0,36,0.00,,,0.00,WeatherTracker,2013-07-17 04:22:00,
2013-07-16 21:27:00,66.4,38.6,29.79,ENE,77,0.0,3.0,36,0.00,,,0.00,WeatherTracker,2013-07-17 04:27:00,
2013-07-16 21:32:00,65.8,38.8,29.79,NE,48,0.0,3.0,37,0.00,,,0.00,WeatherTracker,2013-07-17 04:32:00,
2013-07-16 21:37:00,64.6,40.4,29.80,SSE,162,4.0,4.0,41,0.00,,,0.00,WeatherTracker,2013-07-17 04:37:00,
2013-07-16 21:42:00,62.3,37.7,29.80,WSW,244,7.0,7.0,40,0.00,,,0.00,WeatherTracker,2013-07-17 04:42:00,
2013-07-16 21:47:00,63.1,35.7,29.80,West,260,1.0,9.0,36,0.00,,,0.00,WeatherTracker,2013-07-17 04:47:00,
2013-07-16 21:52:00,63.8,38.4,29.80,West,260,0.0,9.0,39,0.00,,,0.00,WeatherTracker,2013-07-17 04:52:00,
2013-07-16 21:56:00,63.8,37.0,29.80,West,260,0.0,3.0,37,0.00,,,0.00,WeatherTracker,2013-07-17 04:56:00,
2013-07-16 22:00:00,63.7,36.2,29.80,West,260,0.0,3.0,36,0.00,,,0.00,WeatherTracker,2013-07-17 05:00:00,
2013-07-16 22:05:00,63.4,37.3,29.81,West,260,0.0,2.0,38,0.00,,,0.00,WeatherTracker,2013-07-17 05:05:00,
2013-07-16 22:10:00,61.8,37.2,29.81,West,260,0.0,2.0,40,0.00,,,0.00,WeatherTracker,2013-07-17 05:10:00,
2013-07-16 22:15:00,61.4,37.5,29.81,West,260,0.0,2.0,41,0.00,,,0.00,WeatherTracker,2013-07-17 05:15:00,
2013-07-16 22:20:00,61.2,37.3,29.81,West,260,0.0,3.0,41,0.00,,,0.00,WeatherTracker,2013-07-17 05:20:00,
2013-07-16 22:25:00,61.1,37.8,29.81,SSE,149,0.0,3.0,42,0.00,,,0.00,WeatherTracker,2013-07-17 05:25:00,
2013-07-16 22:30:00,60.4,37.2,29.81,SSE,149,0.0,3.0,42,0.00,,,0.00,WeatherTracker,2013-07-17 05:30:00,
2013-07-16 22:35:00,59.4,38.1,29.81,SSE,149,1.0,3.0,45,0.00,,,0.00,WeatherTracker,2013-07-17 05:35:00,
2013-07-16 22:40:00,58.9,36.4,29.81,SSE,149,0.0,3.0,43,0.00,,,0.00,WeatherTracker,2013-07-17 05:40:00,
2013-07-16 22:45:00,59.0,37.7,29.81,SSE,149,0.0,2.0,45,0.00,,,0.00,WeatherTracker,2013-07-17 05:45:00,
2013-07-16 22:50:00,57.7,35.9,29.81,SSE,150,2.0,4.0,44,0.00,,,0.00,WeatherTracker,2013-07-17 05:50:00,
2013-07-16 22:55:00,59.0,37.7,29.82,SSE,150,2.0,4.0,45,0.00,,,0.00,WeatherTracker,2013-07-17 05:55:00,
2013-07-16 23:00:00,60.7,38.7,29.82,SSE,150,3.0,4.0,44,0.00,,,0.00,WeatherTracker,2013-07-17 06:00:00,
2013-07-16 23:05:00,61.8,39.1,29.82,SSE,150,1.0,4.0,43,0.00,,,0.00,WeatherTracker,2013-07-17 06:05:00,
2013-07-16 23:10:00,61.9,37.9,29.82,SSE,150,0.0,4.0,41,0.00,,,0.00,WeatherTracker,2013-07-17 06:10:00,
2013-07-16 23:16:00,61.7,40.1,29.82,SSE,150,0.0,3.0,45,0.00,,,0.00,WeatherTracker,2013-07-17 06:16:00,
2013-07-16 23:21:00,61.4,37.5,29.82,SSE,150,0.0,0.0,41,0.00,,,0.00,WeatherTracker,2013-07-17 06:21:00,
2013-07-16 23:26:00,61.3,38.0,29.82,NE,40,0.0,3.0,42,0.00,,,0.00,WeatherTracker,2013-07-17 06:26:00,
2013-07-16 23:31:00,61.1,37.8,29.82,NE,43,0.0,3.0,42,0.00,,,0.00,WeatherTracker,2013-07-17 06:31:00,
2013-07-16 23:36:00,60.2,38.2,29.83,WNW,302,3.0,5.0,44,0.00,,,0.00,WeatherTracker,2013-07-17 06:36:00,
2013-07-16 23:41:00,59.0,37.1,29.83,WNW,302,0.0,5.0,44,0.00,,,0.00,WeatherTracker,2013-07-17 06:41:00,
2013-07-16 23:46:00,58.6,37.3,29.84,ESE,103,2.0,4.0,45,0.00,,,0.00,WeatherTracker,2013-07-17 06:46:00,
2013-07-16 23:51:00,57.7,37.1,29.84,ESE,104,0.0,5.0,46,0.00,,,0.00,WeatherTracker,2013-07-17 06:51:00,
2013-07-16 23:56:00,57.1,36.0,29.84,ESE,104,0.0,5.0,45,0.00,,,0.00,WeatherTracker,2013-07-17 06:56:00,